Time;durP1;ratioP1;P1;durP2;ratioP2;P2;SDS_P1;SDS_P2;PMS_P1;PMS_P2;Temp;Humidity;BMP_temperature;BMP_pressure;BME280_temperature;BME280_humidity;BME280_pressure;Samples;Min_cycle;Max_cycle;Signal;HPM_P1;HPM_P2
2023/12/18 05:00:27;;;;;;;1.10;1.00;;;3.70;97.30;;;;;;6096275;23;20402;-87
2023/12/18 05:02:52;;;;;;;2.27;1.37;;;3.80;97.30;;;;;;4976160;28;20444;-86
2023/12/18 05:05:18;;;;;;;1.20;1.10;;;3.90;97.30;;;;;;4974443;28;20667;-86
2023/12/18 05:07:43;;;;;;;1.77;1.67;;;4.00;97.30;;;;;;4991435;28;20296;-86
2023/12/18 05:10:09;;;;;;;2.00;1.40;;;4.00;97.30;;;;;;4974839;28;20581;-85
2023/12/18 05:12:34;;;;;;;1.80;1.70;;;4.00;97.30;;;;;;4974420;28;20210;-87
2023/12/18 05:15:00;;;;;;;2.37;1.30;;;4.00;97.30;;;;;;4969697;28;20174;-86
2023/12/18 05:17:25;;;;;;;2.57;2.37;;;4.00;97.30;;;;;;4974926;28;20544;-86
2023/12/18 05:19:51;;;;;;;1.50;1.40;;;4.00;97.30;;;;;;4976586;28;20185;-86
2023/12/18 05:22:16;;;;;;;1.47;1.37;;;3.90;97.30;;;;;;4976303;28;20189;-86
2023/12/18 05:24:41;;;;;;;2.80;1.83;;;3.90;97.30;;;;;;4992723;28;20186;-87
2023/12/18 05:27:07;;;;;;;1.40;1.30;;;3.80;97.30;;;;;;4990746;28;20258;-86
2023/12/18 05:29:32;;;;;;;1.10;1.00;;;3.70;97.30;;;;;;4984253;28;20643;-86
2023/12/18 05:31:58;;;;;;;1.17;1.10;;;3.70;97.30;;;;;;4992419;28;20216;-86
2023/12/18 05:34:23;;;;;;;5.70;2.00;;;3.80;97.30;;;;;;4992183;28;20711;-87
2023/12/18 05:36:49;;;;;;;1.50;1.40;;;3.80;97.30;;;;;;4975820;28;20224;-86
2023/12/18 05:39:15;;;;;;;1.50;1.40;;;3.80;97.30;;;;;;4992032;28;20648;-86
2023/12/18 05:41:40;;;;;;;2.70;2.50;;;3.80;97.30;;;;;;4975838;28;20308;-86
2023/12/18 05:44:06;;;;;;;17.83;3.77;;;3.90;97.30;;;;;;4993358;28;20448;-86
2023/12/18 05:46:31;;;;;;;1.70;1.60;;;3.90;97.30;;;;;;4992967;28;20202;-87
2023/12/18 05:48:57;;;;;;;3.13;1.20;;;4.00;97.30;;;;;;4993286;28;20192;-87
2023/12/18 05:51:24;;;;;;;1.83;1.80;;;4.00;97.30;;;;;;4992061;28;20219;-85
2023/12/18 05:53:49;;;;;;;8.43;2.37;;;4.10;97.30;;;;;;4991434;28;20169;-86
2023/12/18 05:56:15;;;;;;;1.30;1.20;;;4.20;97.30;;;;;;4975981;28;20417;-85
2023/12/18 05:58:41;;;;;;;4.80;2.50;;;4.20;97.30;;;;;;4976026;28;20174;-87
2023/12/18 06:01:06;;;;;;;2.27;2.07;;;4.30;97.30;;;;;;4993971;28;20538;-86
2023/12/18 06:03:32;;;;;;;1.83;1.73;;;4.30;97.30;;;;;;4976194;28;20177;-86
2023/12/18 06:05:57;;;;;;;2.17;2.00;;;4.30;97.30;;;;;;4992469;28;20182;-87
2023/12/18 06:08:23;;;;;;;2.30;2.10;;;4.40;97.30;;;;;;4976193;28;20236;-83
2023/12/18 06:10:49;;;;;;;4.93;2.97;;;4.50;97.30;;;;;;4976077;28;20202;-86
2023/12/18 06:13:14;;;;;;;2.43;2.07;;;4.50;97.30;;;;;;4974201;28;20460;-87
2023/12/18 06:15:40;;;;;;;1.73;1.40;;;4.60;97.30;;;;;;4974090;28;20235;-87
2023/12/18 06:18:05;;;;;;;1.57;1.47;;;4.60;97.30;;;;;;4990533;28;20667;-86
2023/12/18 06:20:31;;;;;;;2.07;1.30;;;4.60;97.30;;;;;;4990381;28;20189;-87
2023/12/18 06:22:56;;;;;;;1.47;1.37;;;4.70;97.30;;;;;;4974354;28;20286;-88
2023/12/18 06:25:22;;;;;;;1.10;1.00;;;4.70;97.30;;;;;;4990434;28;20182;-87
2023/12/18 06:27:47;;;;;;;2.10;1.87;;;4.70;97.30;;;;;;4990174;28;20193;-89
2023/12/18 06:30:13;;;;;;;2.57;2.37;;;4.70;97.30;;;;;;4974052;28;20202;-86
2023/12/18 06:32:39;;;;;;;2.13;1.90;;;4.70;97.30;;;;;;4990259;28;20202;-86
2023/12/18 06:35:05;;;;;;;1.50;1.40;;;4.60;97.30;;;;;;4973852;28;20504;-87
2023/12/18 06:37:30;;;;;;;1.53;1.43;;;4.60;97.30;;;;;;4990186;28;20184;-87
2023/12/18 06:39:56;;;;;;;4.20;3.10;;;4.50;97.30;;;;;;4974012;28;20236;-87
2023/12/18 06:42:21;;;;;;;1.57;1.47;;;4.50;97.30;;;;;;4972931;28;20276;-86
2023/12/18 06:44:47;;;;;;;2.07;1.93;;;4.50;97.30;;;;;;4988429;28;20276;-84
2023/12/18 06:47:12;;;;;;;1.43;1.43;;;4.50;97.30;;;;;;4976120;28;20178;-86
2023/12/18 06:49:38;;;;;;;3.00;1.80;;;4.50;97.30;;;;;;4992234;28;20213;-87
2023/12/18 06:52:03;;;;;;;1.67;1.37;;;4.50;97.30;;;;;;4985185;28;20210;-87
2023/12/18 06:54:29;;;;;;;2.60;2.40;;;4.60;97.30;;;;;;4975104;28;20213;-87
2023/12/18 06:56:54;;;;;;;2.30;2.13;;;4.60;97.30;;;;;;4975029;28;20185;-88
2023/12/18 06:59:20;;;;;;;1.90;1.80;;;4.70;97.30;;;;;;4976360;28;20188;-86
2023/12/18 07:01:45;;;;;;;2.37;2.20;;;4.70;97.30;;;;;;4994873;28;20236;-88
2023/12/18 07:04:11;;;;;;;1.37;1.27;;;4.70;97.30;;;;;;4978893;28;20281;-87
2023/12/18 07:06:36;;;;;;;1.70;1.60;;;4.70;97.30;;;;;;4994758;28;20186;-87
2023/12/18 07:09:02;;;;;;;4.20;1.30;;;4.70;97.30;;;;;;4978698;28;20621;-88
2023/12/18 07:11:27;;;;;;;3.40;2.43;;;4.70;97.30;;;;;;4978586;28;20209;-86
2023/12/18 07:13:53;;;;;;;3.50;2.00;;;4.70;97.30;;;;;;4978884;28;20224;-87
2023/12/18 07:16:20;;;;;;;1.73;1.67;;;4.70;97.30;;;;;;4978552;28;20212;-87
2023/12/18 07:18:45;;;;;;;1.83;1.70;;;4.70;97.30;;;;;;4978647;28;20181;-87
2023/12/18 07:21:11;;;;;;;1.83;1.73;;;4.70;97.30;;;;;;4978309;28;20451;-87
2023/12/18 07:23:36;;;;;;;1.77;1.67;;;4.70;97.30;;;;;;4994456;28;20565;-87
2023/12/18 07:26:03;;;;;;;1.80;1.27;;;4.60;97.30;;;;;;4978661;28;20257;-87
2023/12/18 07:28:28;;;;;;;1.30;1.20;;;4.60;97.30;;;;;;4978261;28;20196;-86
2023/12/18 07:30:54;;;;;;;2.83;2.63;;;4.50;97.30;;;;;;4977975;28;20472;-87
2023/12/18 07:33:19;;;;;;;2.30;2.10;;;4.40;97.30;;;;;;4978703;28;20720;-89
2023/12/18 07:35:46;;;;;;;7.03;4.70;;;4.40;97.30;;;;;;4994405;28;20186;-87
2023/12/18 07:38:13;;;;;;;3.67;3.37;;;4.40;97.30;;;;;;4995265;28;20181;-87
2023/12/18 07:40:38;;;;;;;1.20;1.10;;;4.40;97.30;;;;;;4994458;28;20448;-87
2023/12/18 07:43:04;;;;;;;2.20;2.00;;;4.40;97.30;;;;;;4978309;28;20428;-87
2023/12/18 07:45:29;;;;;;;3.70;3.50;;;4.40;97.30;;;;;;4994528;28;20671;-88
2023/12/18 07:47:55;;;;;;;2.20;2.07;;;4.40;97.30;;;;;;4978100;28;20279;-88
2023/12/18 07:50:20;;;;;;;3.30;2.23;;;4.40;97.30;;;;;;4978527;28;20205;-86
2023/12/18 07:52:46;;;;;;;2.43;2.23;;;4.40;97.30;;;;;;4977938;28;20656;-87
2023/12/18 07:55:11;;;;;;;1.40;1.30;;;4.50;97.30;;;;;;4995285;28;20232;-87
2023/12/18 07:57:37;;;;;;;2.30;2.10;;;4.50;97.30;;;;;;4993847;28;20178;-88
2023/12/18 08:00:03;;;;;;;4.67;1.83;;;4.50;97.30;;;;;;4994938;28;20253;-87
2023/12/18 08:02:29;;;;;;;6.10;2.47;;;4.60;97.30;;;;;;4976979;28;20233;-88
2023/12/18 08:04:54;;;;;;;2.30;2.10;;;4.60;97.30;;;;;;4977098;28;20439;-87
2023/12/18 08:07:20;;;;;;;1.80;1.70;;;4.70;97.30;;;;;;4984972;28;20217;-87
2023/12/18 08:09:45;;;;;;;2.67;2.50;;;4.70;97.30;;;;;;4976762;28;20200;-88
2023/12/18 08:12:11;;;;;;;2.87;2.70;;;4.80;97.30;;;;;;4993791;28;20208;-87
2023/12/18 08:14:36;;;;;;;1.70;1.60;;;4.80;97.30;;;;;;4993379;28;20350;-86
2023/12/18 08:17:03;;;;;;;1.70;1.60;;;4.90;97.30;;;;;;4976882;28;20198;-87
2023/12/18 08:19:29;;;;;;;4.20;2.30;;;4.90;97.30;;;;;;4977053;28;20625;-85
2023/12/18 08:21:54;;;;;;;3.37;3.07;;;4.90;97.30;;;;;;4977143;28;20491;-87
2023/12/18 08:24:20;;;;;;;4.07;2.80;;;5.00;97.30;;;;;;4976661;28;20435;-87
2023/12/18 08:26:48;;;;;;;1.73;1.63;;;5.00;97.30;;;;;;4993179;28;20193;-87
2023/12/18 08:29:14;;;;;;;2.00;1.87;;;5.00;97.30;;;;;;4977934;28;20278;-85
2023/12/18 08:31:39;;;;;;;3.07;2.90;;;5.10;97.30;;;;;;5008270;23;20594;-84
2023/12/18 08:34:05;;;;;;;1.90;1.77;;;5.10;97.30;;;;;;4998180;28;20655;-83
2023/12/18 08:36:31;;;;;;;2.40;2.20;;;5.20;97.30;;;;;;4992854;28;20214;-84
2023/12/18 08:38:57;;;;;;;3.80;1.83;;;5.20;97.30;;;;;;5012604;28;20173;-84
2023/12/18 08:41:22;;;;;;;2.23;1.87;;;5.30;97.30;;;;;;4987944;28;20507;-84
2023/12/18 08:43:48;;;;;;;31.47;3.10;;;5.30;97.30;;;;;;4967479;28;20194;-84
2023/12/18 08:46:13;;;;;;;3.80;3.67;;;5.40;97.30;;;;;;4975148;28;20189;-83
2023/12/18 08:48:39;;;;;;;3.27;2.30;;;5.40;97.30;;;;;;4975209;28;20496;-84
2023/12/18 08:51:04;;;;;;;6.93;2.67;;;5.50;97.30;;;;;;4974928;28;20613;-85
2023/12/18 08:53:30;;;;;;;9.67;2.53;;;5.50;97.30;;;;;;4992362;28;20194;-85
2023/12/18 08:55:55;;;;;;;3.17;2.97;;;5.60;97.30;;;;;;4974990;28;20272;-85
2023/12/18 08:58:21;;;;;;;2.40;1.60;;;5.60;97.30;;;;;;4974719;28;20212;-84
2023/12/18 09:00:47;;;;;;;1.97;1.87;;;5.60;97.30;;;;;;4974952;28;20194;-84
2023/12/18 09:03:12;;;;;;;3.63;2.90;;;5.70;97.30;;;;;;4976293;28;20536;-87
2023/12/18 09:05:38;;;;;;;4.73;4.43;;;5.80;97.30;;;;;;4973889;28;20194;-84
2023/12/18 09:08:05;;;;;;;3.67;3.47;;;5.80;97.30;;;;;;4974613;28;20675;-84
2023/12/18 09:10:32;;;;;;;3.10;2.90;;;5.80;97.30;;;;;;4974518;28;20736;-84
2023/12/18 09:12:58;;;;;;;6.30;3.30;;;5.90;97.30;;;;;;4992429;28;20452;-84
2023/12/18 09:15:23;;;;;;;1.87;1.60;;;6.00;97.30;;;;;;4992078;28;20529;-84
2023/12/18 09:17:49;;;;;;;3.50;3.30;;;6.00;97.30;;;;;;4974490;28;20666;-86
2023/12/18 09:20:14;;;;;;;1.63;1.53;;;6.00;97.30;;;;;;4992642;28;20272;-83
2023/12/18 09:22:40;;;;;;;8.23;3.10;;;6.10;97.30;;;;;;4979915;28;20212;-83
2023/12/18 09:25:06;;;;;;;2.50;2.03;;;6.10;97.30;;;;;;4973927;28;20192;-84
2023/12/18 09:27:31;;;;;;;1.53;1.43;;;6.20;97.30;;;;;;4990195;28;20221;-85
2023/12/18 09:29:57;;;;;;;1.93;1.83;;;6.20;97.30;;;;;;4991754;28;20181;-84
2023/12/18 09:32:23;;;;;;;2.67;2.47;;;6.30;97.30;;;;;;4973905;28;20261;-84
2023/12/18 09:34:48;;;;;;;4.27;2.97;;;6.30;97.30;;;;;;4974239;28;20185;-84
2023/12/18 09:37:14;;;;;;;4.40;3.00;;;6.40;97.30;;;;;;4974237;28;20213;-85
2023/12/18 09:39:43;;;;;;;4.30;3.30;;;6.50;97.30;;;;;;4991620;28;20185;-84
2023/12/18 09:42:12;;;;;;;5.23;3.53;;;6.50;97.30;;;;;;4974132;28;20206;-85
2023/12/18 09:44:38;;;;;;;3.53;3.37;;;6.60;97.30;;;;;;4974052;28;20428;-84
2023/12/18 09:47:04;;;;;;;10.43;4.17;;;6.70;97.30;;;;;;4973959;28;20431;-84
2023/12/18 09:49:31;;;;;;;7.67;4.33;;;6.80;97.30;;;;;;4973934;28;20276;-83
2023/12/18 09:52:00;;;;;;;7.13;4.87;;;6.80;97.30;;;;;;4974004;28;20503;-84
2023/12/18 09:54:28;;;;;;;3.00;2.80;;;6.90;97.30;;;;;;4973933;28;20435;-83
2023/12/18 09:56:55;;;;;;;1.80;1.70;;;6.90;97.30;;;;;;4973917;28;20425;-83
2023/12/18 09:59:21;;;;;;;10.60;2.47;;;7.00;97.30;;;;;;4973880;28;20940;-84
2023/12/18 10:01:47;;;;;;;1.87;1.80;;;7.10;97.30;;;;;;4973721;28;20499;-85
2023/12/18 10:04:12;;;;;;;3.47;2.60;;;7.10;97.30;;;;;;4991185;28;20257;-84
2023/12/18 10:06:39;;;;;;;3.87;2.37;;;7.20;97.30;;;;;;4973632;28;20240;-83
2023/12/18 10:09:12;;;;;;;9.50;2.30;;;7.20;97.30;;;;;;4973654;28;20232;-84
2023/12/18 10:11:38;;;;;;;1.30;1.20;;;7.30;97.30;;;;;;4973718;28;20518;-84
2023/12/18 10:14:03;;;;;;;10.93;2.43;;;7.30;97.30;;;;;;4973931;28;20509;-84
2023/12/18 10:16:30;;;;;;;1.80;1.73;;;7.40;97.30;;;;;;4973698;28;20444;-83
2023/12/18 10:18:56;;;;;;;1.50;1.40;;;7.50;97.30;;;;;;4973863;28;20276;-84
2023/12/18 10:21:23;;;;;;;1.27;1.17;;;7.60;97.30;;;;;;4973399;28;20495;-85
2023/12/18 10:23:50;;;;;;;9.80;2.83;;;7.70;97.30;;;;;;4973998;28;20825;-83
2023/12/18 10:26:16;;;;;;;8.33;3.43;;;7.70;97.30;;;;;;4991325;28;20424;-84
2023/12/18 10:28:41;;;;;;;2.40;2.07;;;7.80;97.30;;;;;;4991046;28;20436;-84
2023/12/18 10:31:09;;;;;;;3.90;2.43;;;7.90;97.30;;;;;;4973735;28;20241;-84
2023/12/18 10:33:35;;;;;;;1.63;1.53;;;8.00;97.30;;;;;;4976692;28;20181;-84
2023/12/18 10:36:00;;;;;;;2.67;2.47;;;8.00;97.30;;;;;;4991494;28;20923;-85
2023/12/18 10:38:30;;;;;;;1.40;1.23;;;8.00;97.30;;;;;;4994706;28;20435;-87
2023/12/18 10:41:01;;;;;;;4.20;2.63;;;8.10;97.30;;;;;;4976528;28;20695;-84
2023/12/18 10:43:27;;;;;;;3.13;2.83;;;8.20;97.30;;;;;;4977422;28;20439;-85
2023/12/18 10:45:54;;;;;;;3.00;2.80;;;8.20;97.30;;;;;;4977110;28;20448;-85
2023/12/18 10:48:20;;;;;;;3.10;2.57;;;8.30;97.30;;;;;;4977532;28;20420;-84
2023/12/18 10:50:47;;;;;;;1.83;1.70;;;8.30;97.30;;;;;;4977316;28;20496;-84
2023/12/18 10:53:18;;;;;;;2.03;1.80;;;8.50;97.30;;;;;;4977600;28;20417;-84
2023/12/18 10:55:44;;;;;;;1.30;1.20;;;8.40;97.30;;;;;;4977530;28;20425;-84
2023/12/18 10:58:10;;;;;;;2.07;1.93;;;8.50;97.30;;;;;;4994845;28;20421;-85
2023/12/18 11:00:40;;;;;;;1.23;1.13;;;8.60;97.30;;;;;;4977102;28;20851;-85
2023/12/18 11:03:06;;;;;;;2.33;2.13;;;8.70;97.30;;;;;;4977373;28;20942;-84
2023/12/18 11:05:32;;;;;;;2.00;1.90;;;8.80;97.30;;;;;;4977158;28;20428;-84
2023/12/18 11:07:58;;;;;;;3.00;2.20;;;8.70;97.30;;;;;;4977480;28;20974;-85
2023/12/18 11:10:27;;;;;;;3.20;3.00;;;8.60;97.30;;;;;;4994469;28;20465;-83
2023/12/18 11:13:12;;;;;;;2.87;2.70;;;8.70;97.30;;;;;;4976850;28;20448;-84
2023/12/18 11:15:50;;;;;;;1.47;1.37;;;8.90;97.30;;;;;;4976815;28;20428;-84
2023/12/18 11:18:38;;;;;;;1.47;1.37;;;9.10;97.30;;;;;;4976966;28;20483;-84
2023/12/18 11:21:05;;;;;;;3.07;2.77;;;8.90;97.30;;;;;;4989165;28;20472;-84
2023/12/18 11:23:39;;;;;;;1.97;1.83;;;8.90;97.30;;;;;;4977583;28;20491;-86
2023/12/18 11:26:08;;;;;;;3.03;2.70;;;8.90;97.30;;;;;;4977040;28;20420;-84
2023/12/18 11:28:35;;;;;;;2.80;2.60;;;9.10;97.30;;;;;;4977200;28;20425;-84
2023/12/18 11:31:02;;;;;;;12.50;1.57;;;9.30;97.30;;;;;;4976874;28;21041;-85
2023/12/18 11:33:29;;;;;;;2.37;2.17;;;9.40;97.30;;;;;;4995311;28;20429;-84
2023/12/18 11:35:56;;;;;;;2.10;1.57;;;9.50;97.30;;;;;;4977410;28;20486;-84
2023/12/18 11:38:24;;;;;;;3.00;1.63;;;9.70;97.30;;;;;;4977352;28;20432;-84
2023/12/18 11:40:50;;;;;;;3.80;1.83;;;9.80;97.30;;;;;;4982231;28;20442;-84
2023/12/18 11:43:41;;;;;;;4.93;3.70;;;9.90;97.30;;;;;;4997722;28;20428;-85
2023/12/18 11:46:09;;;;;;;2.10;1.67;;;10.00;97.30;;;;;;4991198;28;20413;-84
2023/12/18 11:48:35;;;;;;;2.80;2.10;;;10.00;97.30;;;;;;4997754;28;20703;-86
2023/12/18 11:51:05;;;;;;;2.83;2.63;;;10.00;97.30;;;;;;4994745;28;20489;-85
2023/12/18 11:53:32;;;;;;;1.93;1.80;;;10.10;97.30;;;;;;4997940;28;20189;-87
2023/12/18 11:55:58;;;;;;;4.80;2.43;;;10.30;97.30;;;;;;5012183;28;20469;-85
2023/12/18 11:58:25;;;;;;;3.30;2.40;;;10.50;97.30;;;;;;5014645;28;20405;-89
2023/12/18 12:00:51;;;;;;;2.07;1.93;;;10.60;97.10;;;;;;4988291;28;20177;-87
2023/12/18 12:03:17;;;;;;;5.57;2.07;;;10.90;97.30;;;;;;4996666;28;20579;-86
2023/12/18 12:05:45;;;;;;;2.40;1.70;;;11.00;96.80;;;;;;4977879;28;20331;-85
2023/12/18 12:08:11;;;;;;;2.40;2.20;;;11.20;96.90;;;;;;4975924;28;20916;-84
2023/12/18 12:10:47;;;;;;;3.53;1.43;;;11.30;96.30;;;;;;4974063;28;20465;-84
2023/12/18 12:13:31;;;;;;;1.70;1.60;;;11.20;95.30;;;;;;4972542;28;20440;-85
2023/12/18 12:15:58;;;;;;;1.30;1.20;;;11.10;95.20;;;;;;4968843;28;20471;-84
2023/12/18 12:18:25;;;;;;;3.27;2.10;;;11.20;95.40;;;;;;4975715;28;20935;-83
2023/12/18 12:20:51;;;;;;;1.47;1.37;;;11.30;95.00;;;;;;4993500;28;20417;-85
2023/12/18 12:23:16;;;;;;;2.30;2.10;;;11.70;94.90;;;;;;4993157;28;20488;-85
2023/12/18 12:25:43;;;;;;;2.40;1.37;;;11.70;93.60;;;;;;4975649;28;20428;-86
2023/12/18 12:28:08;;;;;;;2.00;1.80;;;12.00;93.50;;;;;;4975426;28;20259;-85
2023/12/18 12:30:34;;;;;;;1.67;1.60;;;12.10;91.80;;;;;;4975378;28;20970;-85
2023/12/18 12:33:03;;;;;;;1.80;1.70;;;12.10;91.50;;;;;;4975500;28;20730;-85
2023/12/18 12:35:30;;;;;;;2.37;2.17;;;12.20;91.50;;;;;;4975196;28;20209;-85
2023/12/18 12:37:55;;;;;;;3.43;3.23;;;11.80;91.10;;;;;;4975425;28;20421;-85
2023/12/18 12:40:21;;;;;;;3.40;1.97;;;11.70;91.70;;;;;;4975219;28;20456;-85
2023/12/18 12:42:47;;;;;;;1.90;1.80;;;12.00;91.50;;;;;;4975041;28;20210;-86
2023/12/18 12:45:14;;;;;;;2.27;2.07;;;12.10;90.90;;;;;;4976490;28;20224;-85
2023/12/18 12:47:40;;;;;;;1.00;0.90;;;12.30;90.60;;;;;;4975160;28;20460;-85
2023/12/18 12:50:06;;;;;;;1.80;1.70;;;12.30;89.40;;;;;;4991549;28;20456;-85
2023/12/18 12:52:37;;;;;;;3.10;2.90;;;12.20;90.10;;;;;;4972712;28;20225;-86
2023/12/18 12:55:04;;;;;;;1.80;1.60;;;12.30;90.30;;;;;;4992669;28;20471;-85
2023/12/18 12:57:29;;;;;;;8.17;3.67;;;12.60;89.10;;;;;;4991060;28;20421;-85
2023/12/18 12:59:55;;;;;;;3.90;2.70;;;12.80;89.20;;;;;;4975095;28;20421;-86
2023/12/18 13:02:23;;;;;;;4.27;1.87;;;12.50;88.80;;;;;;4976831;28;20236;-86
2023/12/18 13:04:49;;;;;;;1.97;1.70;;;11.60;89.90;;;;;;4975581;28;20923;-86
2023/12/18 13:07:18;;;;;;;4.50;1.60;;;11.00;91.40;;;;;;4980824;28;20424;-85
2023/12/18 13:09:44;;;;;;;2.30;2.10;;;10.60;92.70;;;;;;4992145;28;20428;-86
2023/12/18 13:12:14;;;;;;;1.83;1.23;;;10.30;93.20;;;;;;4992829;28;20652;-85
2023/12/18 13:14:44;;;;;;;6.10;1.67;;;10.10;94.10;;;;;;4991259;28;20188;-83
2023/12/18 13:17:10;;;;;;;1.23;1.20;;;10.00;94.60;;;;;;4983568;28;20566;-85
2023/12/18 13:19:35;;;;;;;1.70;1.60;;;9.90;95.40;;;;;;4980240;28;20431;-86
2023/12/18 13:22:01;;;;;;;2.00;1.87;;;9.80;95.40;;;;;;4998023;28;20883;-82
2023/12/18 13:24:29;;;;;;;1.10;1.00;;;9.80;95.50;;;;;;4986482;28;20186;-85
2023/12/18 13:26:54;;;;;;;5.67;1.67;;;9.80;95.70;;;;;;4974398;28;20181;-85
2023/12/18 13:29:20;;;;;;;2.87;1.20;;;10.00;94.20;;;;;;4973791;28;20437;-87
2023/12/18 13:31:45;;;;;;;3.43;1.67;;;10.40;92.60;;;;;;4972952;28;20230;-85
2023/12/18 13:34:13;;;;;;;1.20;1.10;;;10.80;91.80;;;;;;4975280;28;20182;-84
2023/12/18 13:36:38;;;;;;;1.23;1.13;;;11.20;90.70;;;;;;4992112;28;20695;-83
2023/12/18 13:39:04;;;;;;;3.80;1.87;;;11.40;89.50;;;;;;4975839;28;20508;-85
2023/12/18 13:41:35;;;;;;;1.57;1.50;;;11.20;89.70;;;;;;4974118;28;20622;-85
2023/12/18 13:44:02;;;;;;;1.53;1.43;;;11.30;89.10;;;;;;4992149;28;20643;-85
2023/12/18 13:46:28;;;;;;;2.43;2.23;;;11.60;88.90;;;;;;4974525;28;20626;-85
2023/12/18 13:48:53;;;;;;;1.33;1.23;;;11.80;88.40;;;;;;4973838;28;20411;-86
2023/12/18 13:51:19;;;;;;;1.93;1.40;;;12.00;88.30;;;;;;4974740;28;21294;-85
2023/12/18 13:53:45;;;;;;;1.63;1.43;;;12.30;87.30;;;;;;4971496;28;20205;-81
2023/12/18 13:56:11;;;;;;;1.57;1.47;;;12.40;86.60;;;;;;4992450;28;20189;-86
2023/12/18 13:58:37;;;;;;;4.30;3.20;;;12.30;86.20;;;;;;4976873;28;20191;-85
2023/12/18 14:01:03;;;;;;;1.60;1.50;;;12.50;86.90;;;;;;4980390;28;20836;-85
2023/12/18 14:03:29;;;;;;;4.13;2.13;;;12.50;86.30;;;;;;4975463;28;20424;-82
2023/12/18 14:05:55;;;;;;;1.87;1.77;;;12.30;85.20;;;;;;4990058;28;20433;-84
2023/12/18 14:08:21;;;;;;;2.90;2.70;;;12.20;86.30;;;;;;4974843;28;20182;-85
2023/12/18 14:10:46;;;;;;;2.07;1.13;;;12.40;85.80;;;;;;4976811;28;20197;-84
2023/12/18 14:13:12;;;;;;;2.20;1.10;;;12.20;84.80;;;;;;4975222;28;20556;-84
2023/12/18 14:15:37;;;;;;;5.90;2.33;;;12.20;85.60;;;;;;4971840;28;20189;-84
2023/12/18 14:18:03;;;;;;;1.87;1.27;;;12.20;85.00;;;;;;4977534;28;20656;-84
2023/12/18 14:20:29;;;;;;;1.57;1.47;;;12.10;85.10;;;;;;4975682;28;20182;-85
2023/12/18 14:22:54;;;;;;;1.27;1.17;;;12.00;84.60;;;;;;4992530;28;20206;-86
2023/12/18 14:25:20;;;;;;;2.50;1.77;;;11.90;84.60;;;;;;4975467;28;20533;-85
2023/12/18 14:27:46;;;;;;;2.63;1.53;;;11.70;84.50;;;;;;4992665;28;20272;-84
2023/12/18 14:30:11;;;;;;;1.40;1.30;;;11.80;85.20;;;;;;4992753;28;20173;-85
2023/12/18 14:32:37;;;;;;;1.00;0.90;;;11.50;84.80;;;;;;4975179;28;20297;-82
2023/12/18 14:35:03;;;;;;;1.63;1.53;;;11.10;85.30;;;;;;4973171;28;20194;-83
2023/12/18 14:37:28;;;;;;;1.53;1.33;;;10.70;86.50;;;;;;4971385;28;20190;-85
2023/12/18 14:39:54;;;;;;;1.20;1.13;;;10.30;86.60;;;;;;4972201;28;20269;-85
2023/12/18 14:42:19;;;;;;;1.77;1.47;;;10.10;87.00;;;;;;4975184;28;20212;-84
2023/12/18 14:44:45;;;;;;;1.73;1.73;;;9.90;87.40;;;;;;4977121;28;20178;-85
2023/12/18 14:47:11;;;;;;;4.63;1.67;;;9.70;86.90;;;;;;4968782;28;20178;-85
2023/12/18 14:49:36;;;;;;;1.30;1.20;;;9.60;87.80;;;;;;4969410;28;20206;-86
2023/12/18 14:52:02;;;;;;;5.43;1.60;;;9.40;88.10;;;;;;4965134;28;20925;-85
2023/12/18 14:54:28;;;;;;;2.87;2.30;;;9.30;88.30;;;;;;4968576;28;20182;-83
2023/12/18 14:56:54;;;;;;;3.90;2.00;;;9.20;88.90;;;;;;4964781;28;20423;-84
2023/12/18 14:59:20;;;;;;;1.73;1.67;;;9.10;89.10;;;;;;4963415;28;20449;-85
2023/12/18 15:01:45;;;;;;;1.40;1.30;;;9.00;89.60;;;;;;4968042;28;20255;-86
2023/12/18 15:04:11;;;;;;;1.70;1.60;;;8.90;90.10;;;;;;4972730;28;20421;-85
2023/12/18 15:06:37;;;;;;;1.53;1.43;;;8.80;90.70;;;;;;4969518;28;20178;-83
2023/12/18 15:09:03;;;;;;;4.27;1.90;;;8.70;91.10;;;;;;4973336;28;20198;-83
2023/12/18 15:11:28;;;;;;;1.50;1.03;;;8.60;91.50;;;;;;4973577;28;20889;-84
2023/12/18 15:13:54;;;;;;;3.37;1.20;;;8.50;91.90;;;;;;4972663;28;20919;-85
2023/12/18 15:16:20;;;;;;;3.13;1.10;;;8.40;92.10;;;;;;4990322;28;20182;-84
2023/12/18 15:18:46;;;;;;;1.87;1.47;;;8.40;92.40;;;;;;4967807;28;20174;-84
2023/12/18 15:21:12;;;;;;;2.10;1.83;;;8.30;92.50;;;;;;4971584;28;20202;-85
2023/12/18 15:23:37;;;;;;;3.23;2.90;;;8.30;92.70;;;;;;4973183;28;20424;-85
2023/12/18 15:26:03;;;;;;;2.60;1.87;;;8.20;92.80;;;;;;4997659;28;20240;-85
2023/12/18 15:28:29;;;;;;;1.17;1.13;;;8.20;92.90;;;;;;4974215;28;20270;-87
2023/12/18 15:30:54;;;;;;;2.00;1.90;;;8.20;93.00;;;;;;4979142;28;20201;-86
2023/12/18 15:33:20;;;;;;;6.13;3.30;;;8.10;93.20;;;;;;4995621;28;20185;-87
2023/12/18 15:35:45;;;;;;;1.67;1.40;;;8.10;93.50;;;;;;4974029;28;20208;-84
2023/12/18 15:38:11;;;;;;;1.87;1.77;;;8.00;93.80;;;;;;4975221;28;20234;-85
2023/12/18 15:40:37;;;;;;;1.47;1.37;;;7.90;94.00;;;;;;4997763;28;20186;-84
2023/12/18 15:43:03;;;;;;;6.40;4.30;;;7.90;94.20;;;;;;4979475;28;20202;-86
2023/12/18 15:45:29;;;;;;;3.30;3.03;;;7.90;94.10;;;;;;4977110;28;20534;-86
2023/12/18 15:47:54;;;;;;;2.70;1.20;;;7.90;94.30;;;;;;4979613;28;20863;-85
2023/12/18 15:50:20;;;;;;;2.20;2.00;;;7.80;94.40;;;;;;4992570;28;20221;-87
2023/12/18 15:52:45;;;;;;;2.43;1.90;;;7.80;94.40;;;;;;5019714;28;20197;-88
2023/12/18 15:55:11;;;;;;;2.07;1.93;;;7.70;94.50;;;;;;4997804;28;20259;-85
2023/12/18 15:57:36;;;;;;;2.70;2.50;;;7.70;94.50;;;;;;4976093;28;20285;-85
2023/12/18 16:00:04;;;;;;;4.57;1.70;;;7.80;95.80;;;;;;4984613;28;20284;-86
2023/12/18 16:02:30;;;;;;;3.37;1.60;;;7.70;94.70;;;;;;4980314;28;20197;-86
2023/12/18 16:04:56;;;;;;;3.27;1.93;;;7.70;94.80;;;;;;4981077;28;20413;-87
2023/12/18 16:07:22;;;;;;;4.40;3.10;;;7.60;95.00;;;;;;4983703;28;20523;-86
2023/12/18 16:09:51;;;;;;;4.43;1.70;;;7.50;95.20;;;;;;4982780;28;20190;-85
2023/12/18 16:12:18;;;;;;;4.13;1.87;;;7.50;95.40;;;;;;4996327;28;20209;-87
2023/12/18 16:14:43;;;;;;;1.43;1.33;;;7.40;95.60;;;;;;4978342;28;20428;-86
2023/12/18 16:17:10;;;;;;;3.80;2.60;;;7.40;95.80;;;;;;4982443;28;20427;-88
2023/12/18 16:19:35;;;;;;;3.10;2.17;;;7.40;96.00;;;;;;4981491;28;20731;-87
2023/12/18 16:22:01;;;;;;;2.27;2.10;;;7.30;96.40;;;;;;4979857;28;20536;-84
2023/12/18 16:24:27;;;;;;;1.47;1.37;;;7.30;96.60;;;;;;4979881;28;20186;-86
2023/12/18 16:26:52;;;;;;;1.47;1.37;;;7.30;96.80;;;;;;4980179;28;20185;-86
2023/12/18 16:29:18;;;;;;;2.50;1.73;;;7.20;97.00;;;;;;4983224;28;20420;-86
2023/12/18 16:31:45;;;;;;;1.03;0.93;;;7.10;97.10;;;;;;4980128;28;20226;-87
2023/12/18 16:34:11;;;;;;;3.83;2.03;;;7.10;97.10;;;;;;4991480;28;20409;-83
2023/12/18 16:36:36;;;;;;;2.40;2.13;;;7.10;97.20;;;;;;4972956;28;20438;-87
2023/12/18 16:39:02;;;;;;;2.23;2.03;;;7.10;97.20;;;;;;4971518;28;20303;-86
2023/12/18 16:41:32;;;;;;;1.87;1.67;;;7.00;97.30;;;;;;4980039;28;20245;-86
2023/12/18 16:43:58;;;;;;;3.50;3.30;;;7.00;97.30;;;;;;4996144;28;20186;-87
2023/12/18 16:46:25;;;;;;;4.63;3.10;;;6.90;97.30;;;;;;4977229;28;20500;-86
2023/12/18 16:48:51;;;;;;;3.00;2.50;;;6.90;97.30;;;;;;4995377;28;20437;-85
2023/12/18 16:51:16;;;;;;;1.37;1.37;;;6.80;97.30;;;;;;4977594;28;20465;-85
2023/12/18 16:53:42;;;;;;;2.93;2.73;;;6.70;97.30;;;;;;4971855;28;20170;-86
2023/12/18 16:56:07;;;;;;;4.87;1.87;;;6.70;97.30;;;;;;4983300;28;20668;-84
2023/12/18 16:58:33;;;;;;;13.53;2.50;;;6.70;97.30;;;;;;4987546;28;20204;-87
2023/12/18 17:00:59;;;;;;;3.67;2.33;;;6.70;97.30;;;;;;4988706;28;20194;-85
2023/12/18 17:03:25;;;;;;;3.20;2.53;;;6.70;97.30;;;;;;4985344;28;20178;-85
2023/12/18 17:05:50;;;;;;;2.07;1.93;;;6.70;97.30;;;;;;4977024;28;20783;-84
2023/12/18 17:08:16;;;;;;;4.00;2.43;;;6.70;97.30;;;;;;4977283;28;20188;-80
2023/12/18 17:10:43;;;;;;;3.20;3.00;;;6.60;97.30;;;;;;4981251;28;20602;-81
2023/12/18 17:13:08;;;;;;;6.50;3.37;;;6.60;97.30;;;;;;4977042;28;20520;-82
2023/12/18 17:15:34;;;;;;;4.33;2.23;;;6.60;97.30;;;;;;4976015;28;20999;-85
2023/12/18 17:17:59;;;;;;;2.00;1.67;;;6.50;97.30;;;;;;4988892;28;20201;-82
2023/12/18 17:20:25;;;;;;;1.93;1.83;;;6.50;97.30;;;;;;4982403;28;20181;-85
2023/12/18 17:22:51;;;;;;;2.40;2.20;;;6.50;97.30;;;;;;4983484;28;20217;-84
2023/12/18 17:25:17;;;;;;;2.50;2.23;;;6.40;97.30;;;;;;4995887;28;20448;-83
2023/12/18 17:27:43;;;;;;;3.13;3.00;;;6.40;97.30;;;;;;4978612;28;20178;-82
2023/12/18 17:30:08;;;;;;;1.90;1.80;;;6.40;97.30;;;;;;4983604;28;20432;-85
2023/12/18 17:32:34;;;;;;;6.40;2.57;;;6.40;97.30;;;;;;4985825;28;20229;-85
2023/12/18 17:35:00;;;;;;;1.47;1.20;;;6.40;97.30;;;;;;4979186;28;20459;-84
2023/12/18 17:37:25;;;;;;;7.73;2.23;;;6.40;97.30;;;;;;4980254;28;20209;-86
2023/12/18 17:39:51;;;;;;;6.07;2.10;;;6.40;97.30;;;;;;4983388;28;20228;-83
2023/12/18 17:42:17;;;;;;;2.20;2.00;;;6.40;97.30;;;;;;5003483;28;20197;-86
2023/12/18 17:44:42;;;;;;;2.60;2.40;;;6.40;97.30;;;;;;4998019;28;20590;-85
2023/12/18 17:47:09;;;;;;;2.50;2.30;;;6.40;97.30;;;;;;4982994;28;20178;-86
2023/12/18 17:49:36;;;;;;;2.93;1.73;;;6.40;97.30;;;;;;4977773;28;20232;-85